Time;durP1;ratioP1;P1;durP2;ratioP2;P2;SDS_P1;SDS_P2;PMS_P1;PMS_P2;Temp;Humidity;BMP_temperature;BMP_pressure;BME280_temperature;BME280_humidity;BME280_pressure;Samples;Min_cycle;Max_cycle;Signal;HPM_P1;HPM_P2
2022/09/11 00:00:51;;;;;;;35.10;25.05;;;13.10;99.90;;;;;;5096617;28;20048;-72
2022/09/11 00:03:18;;;;;;;49.53;29.23;;;13.10;99.90;;;;;;5078359;28;20047;-72
2022/09/11 00:05:45;;;;;;;42.97;26.75;;;13.10;99.90;;;;;;5096581;28;20405;-71
2022/09/11 00:08:13;;;;;;;34.75;24.77;;;13.10;99.90;;;;;;5096258;28;20040;-72
2022/09/11 00:10:41;;;;;;;44.33;27.88;;;13.10;99.90;;;;;;5096518;28;20344;-72
2022/09/11 00:13:13;;;;;;;36.70;24.58;;;13.10;99.90;;;;;;5096362;28;20360;-72
2022/09/11 00:15:44;;;;;;;42.65;27.33;;;13.10;99.90;;;;;;5078166;28;20052;-72
2022/09/11 00:18:12;;;;;;;39.83;26.67;;;13.10;99.90;;;;;;5096062;28;20032;-72
2022/09/11 00:20:38;;;;;;;46.05;29.95;;;13.10;99.90;;;;;;5095732;28;20067;-72
2022/09/11 00:23:04;;;;;;;36.03;25.08;;;13.20;99.90;;;;;;5096003;28;20039;-72
2022/09/11 00:25:39;;;;;;;35.00;24.08;;;13.10;99.90;;;;;;5078072;28;20044;-73
2022/09/11 00:28:06;;;;;;;36.45;25.50;;;13.10;99.90;;;;;;5096004;28;20051;-72
2022/09/11 00:30:32;;;;;;;41.60;27.50;;;13.10;99.90;;;;;;5096198;28;20159;-72
2022/09/11 00:32:57;;;;;;;39.08;27.40;;;13.00;99.90;;;;;;5096047;28;20043;-72
2022/09/11 00:35:23;;;;;;;43.03;28.83;;;13.00;99.90;;;;;;5077627;28;20464;-72
2022/09/11 00:37:49;;;;;;;58.75;32.78;;;13.00;99.90;;;;;;5077593;28;20040;-71
2022/09/11 00:40:16;;;;;;;47.20;29.85;;;13.10;99.90;;;;;;5095440;28;20071;-72
2022/09/11 00:42:42;;;;;;;43.00;30.38;;;13.10;99.90;;;;;;5096216;28;20043;-72
2022/09/11 00:45:19;;;;;;;36.80;26.58;;;13.10;99.90;;;;;;5095833;28;20040;-72
2022/09/11 00:47:45;;;;;;;38.38;27.67;;;13.10;99.90;;;;;;5095943;28;20467;-71
2022/09/11 00:50:17;;;;;;;35.78;26.55;;;13.10;99.90;;;;;;5095859;28;20036;-72
2022/09/11 00:53:00;;;;;;;40.33;28.40;;;13.10;99.90;;;;;;5095390;28;20456;-72
2022/09/11 00:55:31;;;;;;;39.55;29.02;;;13.20;99.90;;;;;;5095345;28;20044;-72
2022/09/11 00:58:03;;;;;;;49.10;30.45;;;13.20;99.90;;;;;;5095814;28;20040;-72
2022/09/11 01:00:29;;;;;;;53.53;31.60;;;13.20;99.90;;;;;;5095698;28;20465;-71
2022/09/11 01:02:56;;;;;;;43.78;29.63;;;13.30;99.90;;;;;;5095515;28;20119;-71
2022/09/11 01:05:25;;;;;;;48.60;29.77;;;13.30;99.90;;;;;;5095395;28;20051;-72
2022/09/11 01:07:53;;;;;;;48.20;31.48;;;13.40;99.90;;;;;;5094986;28;20177;-72
2022/09/11 01:10:37;;;;;;;56.08;33.25;;;13.40;99.90;;;;;;5075172;28;20040;-72
2022/09/11 01:13:40;;;;;;;43.63;28.65;;;13.50;99.90;;;;;;5075455;28;20044;-72
2022/09/11 01:16:31;;;;;;;34.22;24.98;;;13.50;99.90;;;;;;5057277;28;20045;-72
2022/09/11 01:19:23;;;;;;;62.15;33.90;;;13.40;99.90;;;;;;5075272;28;20055;-71
2022/09/11 01:22:10;;;;;;;40.15;27.80;;;13.40;99.90;;;;;;5073640;28;20064;-72
2022/09/11 01:24:55;;;;;;;33.95;25.52;;;13.40;99.90;;;;;;5090876;28;20047;-72
2022/09/11 01:27:30;;;;;;;36.22;26.75;;;13.40;99.90;;;;;;5077356;28;20044;-71
2022/09/11 01:30:04;;;;;;;42.00;27.38;;;13.30;99.90;;;;;;5060242;28;20048;-72
2022/09/11 01:32:34;;;;;;;42.70;28.05;;;13.30;99.90;;;;;;5094974;28;20048;-72
2022/09/11 01:35:10;;;;;;;35.45;26.85;;;13.20;99.90;;;;;;5076800;28;20127;-72
2022/09/11 01:37:43;;;;;;;37.53;27.35;;;13.20;99.90;;;;;;5094694;28;20040;-72
2022/09/11 01:40:31;;;;;;;33.30;25.17;;;13.20;99.90;;;;;;5095030;28;20093;-71
2022/09/11 01:43:05;;;;;;;31.20;23.45;;;13.20;99.90;;;;;;5094898;28;20127;-71
2022/09/11 01:45:35;;;;;;;42.88;27.08;;;13.10;99.90;;;;;;5094625;28;20040;-71
2022/09/11 01:48:02;;;;;;;28.85;22.50;;;13.10;99.90;;;;;;5076981;28;20101;-72
2022/09/11 01:50:30;;;;;;;33.63;25.15;;;13.10;99.90;;;;;;5095224;28;20119;-72
2022/09/11 01:53:04;;;;;;;38.08;26.58;;;13.10;99.90;;;;;;5094821;28;20341;-72
2022/09/11 01:55:38;;;;;;;;;;;13.00;99.90;;;;;;5094909;28;20470;-72
2022/09/11 01:58:09;;;;;;;35.25;23.88;;;13.00;99.90;;;;;;5095056;28;19977;-72
2022/09/11 02:00:37;;;;;;;35.25;24.88;;;12.90;99.90;;;;;;5094692;28;20032;-72
2022/09/11 02:03:14;;;;;;;35.05;24.25;;;12.90;99.90;;;;;;5095068;28;20040;-72
2022/09/11 02:05:48;;;;;;;47.35;27.65;;;13.00;99.90;;;;;;5094607;28;20052;-72
2022/09/11 02:08:18;;;;;;;34.53;25.08;;;12.90;99.90;;;;;;5094738;28;20051;-72
2022/09/11 02:11:10;;;;;;;37.35;26.20;;;12.90;99.90;;;;;;5094795;28;20044;-72
2022/09/11 02:13:54;;;;;;;36.72;27.52;;;12.90;99.90;;;;;;5094164;28;20352;-72
2022/09/11 02:16:25;;;;;;;;;;;12.90;99.90;;;;;;5073261;28;20044;-72
2022/09/11 02:19:04;;;;;;;43.13;28.48;;;12.90;99.90;;;;;;5066030;28;19916;-72
2022/09/11 02:21:31;;;;;;;36.25;25.98;;;12.90;99.90;;;;;;5094701;28;20036;-72
2022/09/11 02:23:57;;;;;;;34.67;24.35;;;12.80;99.90;;;;;;5094693;28;20040;-72
2022/09/11 02:26:26;;;;;;;30.33;23.45;;;12.80;99.90;;;;;;5094888;28;20036;-72
2022/09/11 02:28:54;;;;;;;31.83;23.48;;;12.80;99.90;;;;;;5094225;28;20460;-71
2022/09/11 02:31:21;;;;;;;35.47;24.60;;;12.80;99.90;;;;;;5094072;28;20033;-72
2022/09/11 02:33:47;;;;;;;30.92;22.30;;;12.70;99.90;;;;;;5094575;28;20047;-72
2022/09/11 02:36:44;;;;;;;37.42;25.02;;;12.70;99.90;;;;;;5094511;28;20487;-72
2022/09/11 02:39:21;;;;;;;32.25;24.13;;;12.70;99.90;;;;;;5060005;28;20121;-72
2022/09/11 02:41:56;;;;;;;32.80;23.85;;;12.70;99.90;;;;;;5094474;28;20044;-71
2022/09/11 02:44:42;;;;;;;39.22;26.75;;;12.70;99.90;;;;;;5098075;28;20443;-71
2022/09/11 02:47:37;;;;;;;39.17;26.90;;;12.70;99.90;;;;;;5046196;28;20056;-72
2022/09/11 02:50:02;;;;;;;42.75;26.05;;;12.60;99.90;;;;;;5077773;28;20060;-72
2022/09/11 02:52:54;;;;;;;36.22;25.50;;;12.60;99.90;;;;;;5077231;28;20040;-71
2022/09/11 02:55:39;;;;;;;30.90;20.73;;;12.60;99.90;;;;;;5043222;28;20037;-71
2022/09/11 02:58:16;;;;;;;42.53;27.50;;;12.50;99.90;;;;;;5060472;28;20415;-72
2022/09/11 03:00:42;;;;;;;28.85;21.88;;;12.50;99.90;;;;;;5087205;28;20076;-71
2022/09/11 03:03:07;;;;;;;33.40;23.92;;;12.50;99.90;;;;;;5097859;28;20072;-72
2022/09/11 03:05:33;;;;;;;31.67;23.52;;;12.50;99.90;;;;;;5097970;28;20044;-72
2022/09/11 03:07:59;;;;;;;43.95;27.73;;;12.50;99.90;;;;;;5097959;28;20043;-71
2022/09/11 03:10:26;;;;;;;33.70;24.52;;;12.50;99.90;;;;;;5097525;28;20109;-71
2022/09/11 03:12:53;;;;;;;33.85;24.25;;;12.50;99.90;;;;;;5097632;28;20109;-72
2022/09/11 03:15:19;;;;;;;32.97;23.50;;;12.40;99.90;;;;;;5097245;28;20046;-72
2022/09/11 03:17:45;;;;;;;28.08;22.02;;;12.40;99.90;;;;;;5097266;28;20118;-72
2022/09/11 03:20:11;;;;;;;34.05;23.77;;;12.40;99.90;;;;;;5079152;28;20040;-72
2022/09/11 03:22:38;;;;;;;28.75;22.63;;;12.40;99.90;;;;;;5097222;28;20036;-72
2022/09/11 03:25:05;;;;;;;32.40;24.10;;;12.40;99.90;;;;;;5094857;28;20044;-72
2022/09/11 03:27:31;;;;;;;30.15;23.20;;;12.30;99.90;;;;;;5097315;28;20101;-72
2022/09/11 03:29:57;;;;;;;34.05;24.90;;;12.40;99.90;;;;;;5097301;28;20140;-71
2022/09/11 03:32:23;;;;;;;33.40;23.92;;;12.40;99.90;;;;;;5079192;28;20059;-72
2022/09/11 03:34:48;;;;;;;32.35;22.40;;;12.30;99.90;;;;;;5096906;28;20052;-71
2022/09/11 03:37:14;;;;;;;30.60;22.55;;;12.30;99.90;;;;;;5096846;28;20044;-71
2022/09/11 03:39:42;;;;;;;34.30;24.38;;;12.50;99.90;;;;;;5078994;28;20036;-72
2022/09/11 03:42:11;;;;;;;31.17;22.95;;;12.30;99.90;;;;;;5096962;28;20047;-71
2022/09/11 03:44:36;;;;;;;29.98;23.05;;;12.30;99.90;;;;;;5097006;28;20399;-70
2022/09/11 03:47:02;;;;;;;32.60;22.40;;;12.40;99.90;;;;;;5097160;28;20045;-72
2022/09/11 03:49:27;;;;;;;31.58;21.98;;;12.30;99.90;;;;;;5096850;28;20042;-71
2022/09/11 03:51:53;;;;;;;26.25;20.40;;;12.30;99.90;;;;;;5062380;28;20414;-71
2022/09/11 03:54:19;;;;;;;27.83;20.10;;;12.30;99.90;;;;;;5096601;28;20039;-72
2022/09/11 03:56:45;;;;;;;37.58;23.80;;;12.30;99.90;;;;;;5062018;28;20448;-71
2022/09/11 03:59:12;;;;;;;30.35;21.38;;;12.30;99.90;;;;;;5096734;28;20123;-72
2022/09/11 04:01:37;;;;;;;27.50;21.33;;;12.30;99.90;;;;;;5097042;28;20403;-71
2022/09/11 04:04:03;;;;;;;27.70;20.02;;;12.20;99.90;;;;;;5075368;28;20169;-72
2022/09/11 04:06:31;;;;;;;27.85;19.20;;;12.20;99.90;;;;;;5077082;28;20042;-71
2022/09/11 04:08:57;;;;;;;27.88;20.73;;;12.20;99.90;;;;;;5096443;28;20055;-71
2022/09/11 04:11:23;;;;;;;25.23;19.50;;;12.10;99.90;;;;;;5078819;28;20036;-71
2022/09/11 04:13:50;;;;;;;25.20;19.15;;;12.10;99.90;;;;;;5096708;28;20079;-71
2022/09/11 04:16:17;;;;;;;26.52;19.63;;;12.10;99.90;;;;;;5096302;28;20036;-71
2022/09/11 04:18:44;;;;;;;27.20;19.67;;;12.10;99.90;;;;;;5096214;28;20353;-71
2022/09/11 04:21:13;;;;;;;24.83;18.60;;;12.10;99.90;;;;;;5096094;28;20071;-71
2022/09/11 04:23:40;;;;;;;21.15;16.48;;;12.10;99.90;;;;;;5096723;28;20039;-72
2022/09/11 04:26:14;;;;;;;20.23;15.93;;;12.00;99.90;;;;;;5077971;28;20123;-71
2022/09/11 04:28:40;;;;;;;26.88;17.98;;;12.00;99.90;;;;;;5078047;28;20044;-72
2022/09/11 04:31:06;;;;;;;25.70;18.48;;;12.00;99.90;;;;;;5096328;28;20147;-71
2022/09/11 04:33:33;;;;;;;25.30;19.38;;;11.90;99.90;;;;;;5096200;28;20040;-71
2022/09/11 04:36:03;;;;;;;31.25;20.95;;;11.90;99.90;;;;;;5095369;28;20059;-72
2022/09/11 04:38:29;;;;;;;24.15;18.35;;;12.00;99.90;;;;;;5095934;28;20036;-71
2022/09/11 04:40:58;;;;;;;27.55;19.20;;;11.90;99.90;;;;;;5095905;28;20334;-71
2022/09/11 04:43:24;;;;;;;24.95;17.73;;;11.90;99.90;;;;;;5095981;28;20051;-71
2022/09/11 04:45:49;;;;;;;21.70;15.90;;;11.90;99.90;;;;;;5077605;28;20036;-72
2022/09/11 04:48:15;;;;;;;32.85;19.35;;;11.90;99.90;;;;;;5095799;28;20040;-72
2022/09/11 04:50:40;;;;;;;22.10;17.20;;;11.80;99.90;;;;;;5095258;28;20107;-72
2022/09/11 04:53:06;;;;;;;21.05;16.45;;;11.80;99.90;;;;;;5095576;28;20464;-71
2022/09/11 04:55:31;;;;;;;23.38;16.75;;;11.80;99.90;;;;;;5077722;28;20036;-72
2022/09/11 04:57:57;;;;;;;20.20;15.25;;;11.90;99.90;;;;;;5095769;28;20119;-71
2022/09/11 05:00:23;;;;;;;25.15;17.35;;;11.80;99.90;;;;;;5095727;28;20039;-72
2022/09/11 05:02:49;;;;;;;22.75;17.23;;;11.80;99.90;;;;;;5095004;28;20152;-71
2022/09/11 05:05:15;;;;;;;22.08;17.73;;;11.80;99.90;;;;;;5060300;28;20408;-71
2022/09/11 05:07:41;;;;;;;19.85;16.02;;;11.90;99.90;;;;;;5077420;28;20044;-71
2022/09/11 05:10:07;;;;;;;25.85;17.83;;;11.90;99.90;;;;;;5095408;28;20082;-71
2022/09/11 05:12:32;;;;;;;19.38;15.27;;;11.90;99.90;;;;;;5095425;28;20040;-71
2022/09/11 05:14:58;;;;;;;23.50;17.33;;;12.00;99.90;;;;;;5095348;28;20044;-71
2022/09/11 05:17:24;;;;;;;21.02;16.83;;;12.00;99.90;;;;;;5095190;28;20051;-71
2022/09/11 05:19:49;;;;;;;23.65;16.70;;;12.00;99.90;;;;;;5094881;28;20097;-71
2022/09/11 05:22:16;;;;;;;20.52;16.42;;;12.00;99.90;;;;;;5062875;28;20062;-70
2022/09/11 05:24:42;;;;;;;19.52;16.40;;;12.00;99.90;;;;;;5089315;28;20424;-71
2022/09/11 05:27:08;;;;;;;33.80;20.33;;;12.00;99.90;;;;;;5085630;28;20073;-71
2022/09/11 05:29:34;;;;;;;21.67;16.55;;;12.10;99.90;;;;;;5104764;28;20071;-71
2022/09/11 05:32:00;;;;;;;22.55;17.23;;;12.20;99.90;;;;;;5108538;28;20478;-71
2022/09/11 05:34:28;;;;;;;23.13;17.67;;;12.20;99.90;;;;;;5097628;28;20047;-71
2022/09/11 05:36:58;;;;;;;24.70;17.95;;;12.20;99.90;;;;;;5091956;28;20368;-72
2022/09/11 05:39:24;;;;;;;19.75;16.15;;;12.30;99.90;;;;;;5094826;28;20040;-71
2022/09/11 05:41:54;;;;;;;22.98;17.75;;;12.40;99.90;;;;;;5094831;28;20329;-71
2022/09/11 05:44:20;;;;;;;28.00;18.50;;;12.30;99.90;;;;;;5060227;28;20044;-72
2022/09/11 05:46:45;;;;;;;24.85;18.92;;;12.40;99.90;;;;;;5094803;28;20049;-72
2022/09/11 05:49:11;;;;;;;28.88;19.95;;;12.50;99.90;;;;;;5094132;28;20068;-71
2022/09/11 05:51:39;;;;;;;26.15;20.45;;;12.40;99.90;;;;;;5096867;28;20039;-72
2022/09/11 05:54:04;;;;;;;27.77;20.42;;;12.50;99.90;;;;;;5088883;28;20035;-71
2022/09/11 05:56:30;;;;;;;25.08;19.30;;;12.60;99.90;;;;;;5098865;28;20326;-70
2022/09/11 05:58:57;;;;;;;22.10;18.20;;;12.60;99.90;;;;;;5111489;28;20530;-74
2022/09/11 06:01:25;;;;;;;25.90;21.10;;;12.70;99.90;;;;;;5094612;28;20471;-72
2022/09/11 06:03:51;;;;;;;21.40;18.23;;;12.80;99.90;;;;;;5076130;28;20040;-71
2022/09/11 06:06:20;;;;;;;22.52;18.88;;;12.90;99.90;;;;;;5094252;28;20119;-74
2022/09/11 06:08:47;;;;;;;22.10;18.23;;;13.10;99.90;;;;;;5059850;28;20510;-72
2022/09/11 06:11:14;;;;;;;22.77;18.95;;;13.00;99.90;;;;;;5096885;28;20032;-71
2022/09/11 06:13:43;;;;;;;29.70;18.58;;;13.10;99.90;;;;;;5076671;28;20040;-72
2022/09/11 06:16:17;;;;;;;22.73;18.95;;;13.30;99.90;;;;;;5076815;28;20348;-71
2022/09/11 06:18:42;;;;;;;23.52;19.25;;;13.30;99.90;;;;;;5060337;28;20048;-72
2022/09/11 06:21:10;;;;;;;23.50;20.25;;;13.40;99.90;;;;;;5098139;28;20047;-72
2022/09/11 06:23:38;;;;;;;24.92;20.60;;;13.90;99.90;;;;;;5080095;28;20040;-72
2022/09/11 06:26:07;;;;;;;21.75;19.42;;;14.70;99.90;;;;;;5080173;28;20468;-72
2022/09/11 06:28:36;;;;;;;16.95;15.15;;;15.60;99.90;;;;;;5098014;28;20452;-72
2022/09/11 06:31:04;;;;;;;15.65;13.95;;;15.90;99.90;;;;;;5098091;28;20364;-71
2022/09/11 06:33:40;;;;;;;15.50;12.98;;;15.90;99.90;;;;;;5080240;28;20496;-70
2022/09/11 06:36:09;;;;;;;16.33;13.15;;;15.90;99.90;;;;;;5063194;28;20040;-68
2022/09/11 06:38:35;;;;;;;18.02;13.00;;;15.80;99.90;;;;;;5076116;28;20037;-69
2022/09/11 06:41:02;;;;;;;16.67;13.73;;;15.70;99.90;;;;;;5089547;28;20404;-68
2022/09/11 06:43:28;;;;;;;14.95;12.95;;;15.70;99.90;;;;;;5080136;28;20044;-68
2022/09/11 06:45:54;;;;;;;15.18;13.07;;;15.60;99.90;;;;;;5097813;28;20460;-69
2022/09/11 06:48:20;;;;;;;12.27;11.07;;;15.60;99.90;;;;;;5098017;28;20040;-68
2022/09/11 06:50:45;;;;;;;13.23;11.90;;;15.60;99.90;;;;;;5098040;28;20518;-67
2022/09/11 06:53:13;;;;;;;15.98;13.07;;;15.60;99.90;;;;;;5097552;28;20464;-69
2022/09/11 06:55:39;;;;;;;15.27;13.18;;;15.60;99.90;;;;;;5097718;28;20063;-69
2022/09/11 06:58:06;;;;;;;13.32;11.88;;;15.70;99.90;;;;;;5098022;28;20040;-68
2022/09/11 07:00:35;;;;;;;15.45;11.65;;;15.70;99.90;;;;;;5097674;28;20040;-68
2022/09/11 07:03:02;;;;;;;13.93;12.13;;;15.80;99.90;;;;;;5097621;28;20097;-68
2022/09/11 07:05:28;;;;;;;13.32;11.45;;;15.80;99.90;;;;;;5097550;28;20039;-71
2022/09/11 07:07:55;;;;;;;12.88;11.57;;;15.90;99.90;;;;;;5096858;28;20059;-70
2022/09/11 07:10:22;;;;;;;13.00;11.48;;;16.00;99.90;;;;;;5097266;28;20050;-69
2022/09/11 07:12:48;;;;;;;14.55;12.02;;;16.00;99.90;;;;;;5097400;28;20054;-69
2022/09/11 07:15:13;;;;;;;11.60;10.38;;;16.10;99.90;;;;;;5097627;28;20144;-71
2022/09/11 07:17:39;;;;;;;14.98;12.38;;;16.20;99.90;;;;;;5097395;28;20508;-70
2022/09/11 07:20:07;;;;;;;15.10;11.43;;;16.20;99.90;;;;;;5097494;28;20036;-69
2022/09/11 07:22:34;;;;;;;12.75;10.98;;;16.30;99.90;;;;;;5096669;28;20035;-70
2022/09/11 07:25:00;;;;;;;12.35;11.02;;;16.30;99.90;;;;;;5096905;28;20119;-70
2022/09/11 07:27:27;;;;;;;12.85;10.40;;;16.40;99.90;;;;;;5096982;28;20102;-70
2022/09/11 07:29:52;;;;;;;12.38;10.10;;;16.50;99.90;;;;;;5078661;28;20055;-70
2022/09/11 07:32:18;;;;;;;12.70;10.07;;;16.60;99.90;;;;;;5079492;28;20044;-69
2022/09/11 07:34:46;;;;;;;12.02;9.60;;;16.70;99.90;;;;;;5096736;28;20411;-69
2022/09/11 07:37:12;;;;;;;11.20;8.48;;;16.70;99.90;;;;;;5096883;28;20403;-69
2022/09/11 07:39:37;;;;;;;11.98;10.20;;;16.80;99.90;;;;;;5096917;28;20101;-68
2022/09/11 07:42:03;;;;;;;10.07;8.93;;;16.90;99.90;;;;;;5096346;28;20122;-68
2022/09/11 07:44:29;;;;;;;10.70;9.60;;;16.90;99.90;;;;;;5096729;28;20474;-70
2022/09/11 07:46:54;;;;;;;11.77;9.70;;;17.00;99.90;;;;;;5097006;28;20087;-70
2022/09/11 07:49:20;;;;;;;11.30;9.10;;;17.00;99.90;;;;;;5097019;28;20378;-69
2022/09/11 07:51:45;;;;;;;9.93;8.52;;;17.10;99.90;;;;;;5096648;28;20040;-69
2022/09/11 07:54:11;;;;;;;12.05;9.65;;;17.00;99.90;;;;;;5096504;28;20040;-70
2022/09/11 07:56:37;;;;;;;11.93;8.45;;;17.10;99.90;;;;;;5096523;28;20360;-69
2022/09/11 07:59:06;;;;;;;9.95;8.32;;;17.20;99.90;;;;;;5096677;28;20124;-70
2022/09/11 08:01:32;;;;;;;11.70;8.40;;;17.20;99.90;;;;;;5096603;28;20052;-70
2022/09/11 08:04:04;;;;;;;9.88;7.22;;;17.30;99.90;;;;;;5096756;28;20040;-68
2022/09/11 08:06:33;;;;;;;13.77;8.45;;;17.30;99.90;;;;;;5096029;28;20093;-68
2022/09/11 08:09:01;;;;;;;13.82;9.02;;;17.40;99.90;;;;;;5096315;28;20059;-69
2022/09/11 08:11:30;;;;;;;17.40;8.60;;;17.40;99.90;;;;;;5096499;28;20349;-70
2022/09/11 08:13:56;;;;;;;11.88;8.20;;;17.50;99.90;;;;;;5096155;28;20044;-71
2022/09/11 08:16:25;;;;;;;11.43;8.30;;;17.60;99.90;;;;;;5085177;28;20105;-70
2022/09/11 08:18:53;;;;;;;9.20;6.93;;;17.70;99.90;;;;;;5086487;28;20471;-71
2022/09/11 08:21:19;;;;;;;10.10;7.70;;;17.70;99.90;;;;;;5089592;28;20044;-67
2022/09/11 08:23:45;;;;;;;10.55;6.20;;;17.90;99.90;;;;;;5093237;28;20108;-68
2022/09/11 08:26:16;;;;;;;8.90;6.65;;;18.00;99.90;;;;;;5096331;28;20044;-68
2022/09/11 08:28:43;;;;;;;10.45;5.30;;;18.10;99.90;;;;;;5096111;28;20054;-68
2022/09/11 08:31:10;;;;;;;8.23;6.07;;;18.20;99.90;;;;;;5096111;28;20048;-68
2022/09/11 08:33:36;;;;;;;8.65;6.18;;;18.20;99.90;;;;;;5095016;28;20048;-68
2022/09/11 08:36:06;;;;;;;11.32;6.07;;;18.30;99.90;;;;;;5092557;28;20460;-68
2022/09/11 08:38:32;;;;;;;10.43;5.60;;;18.30;99.90;;;;;;5079704;28;20090;-69
2022/09/11 08:41:10;;;;;;;8.13;5.35;;;18.40;99.90;;;;;;5085918;28;20427;-68
2022/09/11 08:43:43;;;;;;;9.80;5.65;;;18.40;99.90;;;;;;5094376;28;20035;-69
2022/09/11 08:46:10;;;;;;;10.35;4.97;;;18.50;99.90;;;;;;5095461;28;20101;-69
2022/09/11 08:48:49;;;;;;;8.65;5.28;;;18.60;99.90;;;;;;5081855;28;20460;-68
2022/09/11 08:51:17;;;;;;;11.32;5.03;;;18.70;99.90;;;;;;5094304;28;20086;-69
2022/09/11 08:53:44;;;;;;;7.30;4.60;;;18.80;99.90;;;;;;5095190;28;20383;-68
2022/09/11 08:56:16;;;;;;;8.43;4.72;;;18.80;99.90;;;;;;5095335;28;20055;-68
2022/09/11 08:58:58;;;;;;;5.53;3.58;;;18.90;99.90;;;;;;5095235;28;20107;-67
2022/09/11 09:01:54;;;;;;;6.80;3.63;;;19.00;99.90;;;;;;5095261;28;20048;-67
2022/09/11 09:04:42;;;;;;;5.72;2.97;;;19.10;99.90;;;;;;5095299;28;20096;-67
2022/09/11 09:07:33;;;;;;;8.70;3.08;;;19.30;99.90;;;;;;5094878;28;20044;-67
2022/09/11 09:10:21;;;;;;;6.63;3.13;;;19.40;99.90;;;;;;5094068;28;20048;-68
2022/09/11 09:12:55;;;;;;;6.65;2.47;;;19.60;99.90;;;;;;5094964;28;20083;-69
2022/09/11 09:15:39;;;;;;;6.95;2.60;;;19.70;99.90;;;;;;5094772;28;20097;-69
2022/09/11 09:18:11;;;;;;;5.97;2.22;;;19.70;99.90;;;;;;5091704;28;20196;-68
2022/09/11 09:20:41;;;;;;;6.13;2.15;;;19.70;99.90;;;;;;5094710;28;20092;-70
2022/09/11 09:23:23;;;;;;;7.13;2.30;;;19.80;99.90;;;;;;5095070;28;20048;-69
2022/09/11 09:25:51;;;;;;;4.53;2.20;;;20.80;99.90;;;;;;5094688;28;20074;-69
2022/09/11 09:28:26;;;;;;;8.52;2.13;;;21.90;99.90;;;;;;5094810;28;20066;-68
2022/09/11 09:31:02;;;;;;;4.57;1.65;;;22.40;99.90;;;;;;5094881;28;20044;-68
2022/09/11 09:33:47;;;;;;;6.05;2.00;;;22.10;99.90;;;;;;5094569;28;20479;-68
2022/09/11 09:36:26;;;;;;;4.32;1.73;;;21.80;99.90;;;;;;5094505;28;20558;-68
2022/09/11 09:38:52;;;;;;;7.50;2.05;;;21.70;99.90;;;;;;5087366;28;20104;-68
2022/09/11 09:41:55;;;;;;;5.57;2.00;;;21.50;99.90;;;;;;5082540;28;20474;-68
2022/09/11 09:44:37;;;;;;;6.60;2.15;;;21.30;99.90;;;;;;5081431;28;20127;-68
2022/09/11 09:47:03;;;;;;;3.92;1.70;;;21.20;99.90;;;;;;5099494;28;20063;-66
2022/09/11 09:49:32;;;;;;;4.43;1.70;;;21.10;99.90;;;;;;5095505;28;20109;-69
2022/09/11 09:52:18;;;;;;;5.05;1.90;;;21.00;99.90;;;;;;5096348;28;20052;-71
2022/09/11 09:55:00;;;;;;;5.28;2.38;;;20.90;99.90;;;;;;5093482;28;20076;-70
2022/09/11 09:57:38;;;;;;;4.82;1.70;;;20.90;99.90;;;;;;5090986;28;20036;-69
2022/09/11 10:00:06;;;;;;;4.20;1.80;;;20.80;99.90;;;;;;5098301;28;20116;-69
2022/09/11 10:02:42;;;;;;;5.30;1.55;;;20.70;99.90;;;;;;5095964;28;20070;-68
2022/09/11 10:05:31;;;;;;;4.20;1.60;;;20.70;99.90;;;;;;5086737;28;20097;-69
2022/09/11 10:08:24;;;;;;;4.03;1.75;;;20.70;99.90;;;;;;5091654;28;20456;-67
2022/09/11 10:11:05;;;;;;;4.72;1.80;;;20.90;99.90;;;;;;5071930;28;20048;-70
2022/09/11 10:13:40;;;;;;;3.92;1.95;;;20.90;99.90;;;;;;5098354;28;20040;-69
2022/09/11 10:16:25;;;;;;;5.05;1.60;;;21.10;99.90;;;;;;5098468;28;20123;-68
2022/09/11 10:18:52;;;;;;;3.72;1.20;;;21.30;99.90;;;;;;5098700;28;20044;-70
2022/09/11 10:21:28;;;;;;;5.20;1.75;;;21.50;99.90;;;;;;5098039;28;20128;-69
2022/09/11 10:23:55;;;;;;;3.13;1.35;;;21.70;99.90;;;;;;5098312;28;20047;-69
2022/09/11 10:26:23;;;;;;;4.07;1.40;;;21.80;99.90;;;;;;5080514;28;20083;-68
2022/09/11 10:28:50;;;;;;;4.53;1.60;;;21.90;99.90;;;;;;5098181;28;20383;-68
2022/09/11 10:31:17;;;;;;;3.97;1.40;;;22.10;99.90;;;;;;5098042;28;20059;-71
2022/09/11 10:33:51;;;;;;;5.50;1.65;;;22.10;99.90;;;;;;5096383;28;20036;-70
2022/09/11 10:36:30;;;;;;;5.78;1.30;;;22.10;99.90;;;;;;5077935;28;20060;-71
2022/09/11 10:39:00;;;;;;;7.47;1.33;;;22.20;99.90;;;;;;5093690;28;20075;-70
2022/09/11 10:41:27;;;;;;;3.85;1.30;;;22.40;99.90;;;;;;5090567;28;20486;-71
2022/09/11 10:44:04;;;;;;;3.10;1.25;;;22.70;99.90;;;;;;5095188;28;20086;-71
2022/09/11 10:46:36;;;;;;;2.92;1.20;;;23.00;99.90;;;;;;5097734;28;20367;-71
2022/09/11 10:49:04;;;;;;;3.45;1.40;;;23.20;99.90;;;;;;5096855;28;20044;-71
2022/09/11 10:51:34;;;;;;;5.25;1.48;;;23.40;99.90;;;;;;5097979;28;20364;-71
2022/09/11 10:54:07;;;;;;;3.42;1.60;;;23.50;99.90;;;;;;5097203;28;20130;-70
2022/09/11 10:56:41;;;;;;;3.08;1.23;;;23.60;99.90;;;;;;5098075;28;20044;-70
2022/09/11 10:59:16;;;;;;;3.45;1.30;;;23.30;99.90;;;;;;5097304;28;20072;-70
2022/09/11 11:01:42;;;;;;;3.17;1.15;;;22.90;99.90;;;;;;5097008;28;20078;-69
2022/09/11 11:04:11;;;;;;;4.47;1.10;;;22.60;99.90;;;;;;5088570;28;20048;-70
2022/09/11 11:07:03;;;;;;;5.70;1.70;;;22.30;99.90;;;;;;5088288;28;20046;-70
2022/09/11 11:09:47;;;;;;;11.90;3.20;;;21.80;99.90;;;;;;5061720;28;20140;-69
2022/09/11 11:12:34;;;;;;;12.32;3.30;;;21.00;99.90;;;;;;5087623;28;20571;-69
2022/09/11 11:15:42;;;;;;;6.28;2.78;;;20.00;99.90;;;;;;5090325;28;20471;-70
2022/09/11 11:18:34;;;;;;;9.18;3.00;;;19.00;99.90;;;;;;5086313;28;20507;-68
2022/09/11 11:21:11;;;;;;;11.23;3.88;;;18.50;99.90;;;;;;5097205;28;20048;-70
2022/09/11 11:23:48;;;;;;;6.72;4.25;;;18.20;99.90;;;;;;5096593;28;20056;-69
2022/09/11 11:26:57;;;;;;;6.90;3.70;;;18.20;99.90;;;;;;5091439;28;20039;-70
2022/09/11 11:29:49;;;;;;;9.68;3.67;;;18.30;99.90;;;;;;5096853;28;20036;-69
2022/09/11 11:32:34;;;;;;;10.93;3.78;;;18.20;99.90;;;;;;5044300;28;20181;-69
2022/09/11 11:35:19;;;;;;;9.70;4.00;;;18.30;99.90;;;;;;5096315;28;20059;-71
2022/09/11 11:37:46;;;;;;;9.07;4.57;;;18.30;99.90;;;;;;5096988;28;20102;-69
2022/09/11 11:40:22;;;;;;;7.38;4.60;;;18.30;99.90;;;;;;5093951;28;20036;-69
2022/09/11 11:43:03;;;;;;;11.43;4.97;;;18.40;99.90;;;;;;5070710;28;20333;-69
2022/09/11 11:45:40;;;;;;;6.78;4.72;;;18.50;99.90;;;;;;5086397;28;20101;-69
2022/09/11 11:48:33;;;;;;;12.10;4.65;;;18.60;99.90;;;;;;5087736;28;20048;-70
2022/09/11 11:51:03;;;;;;;7.93;4.50;;;18.70;99.90;;;;;;5096462;28;20071;-69
2022/09/11 11:53:39;;;;;;;8.13;4.40;;;18.70;99.90;;;;;;5078623;28;20044;-69
2022/09/11 11:56:27;;;;;;;8.52;5.38;;;18.80;99.90;;;;;;5095944;28;20048;-68
2022/09/11 11:59:23;;;;;;;8.15;5.82;;;18.90;99.90;;;;;;5069206;28;20044;-71
2022/09/11 12:02:02;;;;;;;9.10;4.80;;;19.10;99.90;;;;;;5087760;28;20055;-69
2022/09/11 12:04:33;;;;;;;11.15;5.70;;;19.20;99.90;;;;;;5096583;28;20073;-67
2022/09/11 12:07:17;;;;;;;8.18;5.05;;;19.30;99.90;;;;;;5096467;28;20051;-69
2022/09/11 12:09:48;;;;;;;6.82;4.18;;;19.40;99.90;;;;;;5096513;28;20048;-69
2022/09/11 12:12:16;;;;;;;8.95;5.88;;;19.50;99.90;;;;;;5096084;28;20376;-67
2022/09/11 12:14:51;;;;;;;6.32;4.32;;;19.60;99.90;;;;;;5094990;28;20364;-68
2022/09/11 12:17:29;;;;;;;9.60;4.15;;;19.50;99.90;;;;;;5096203;28;20458;-69
2022/09/11 12:20:10;;;;;;;6.38;4.45;;;19.50;99.90;;;;;;5095630;28;20044;-69
2022/09/11 12:22:57;;;;;;;7.20;5.18;;;19.50;99.90;;;;;;5096177;28;20127;-68
2022/09/11 12:25:31;;;;;;;9.80;5.25;;;19.50;99.90;;;;;;5084376;28;20448;-68
2022/09/11 12:28:15;;;;;;;7.30;3.67;;;19.60;99.90;;;;;;5085559;28;20043;-68
2022/09/11 12:31:06;;;;;;;6.93;5.18;;;19.60;99.90;;;;;;5090946;28;20040;-68
2022/09/11 12:33:40;;;;;;;7.53;4.18;;;19.60;99.90;;;;;;5095637;28;20067;-69
2022/09/11 12:36:12;;;;;;;7.25;3.85;;;19.60;99.90;;;;;;5095305;28;20060;-70
2022/09/11 12:38:43;;;;;;;8.82;4.68;;;19.50;99.90;;;;;;5095616;28;20127;-72
2022/09/11 12:41:16;;;;;;;7.85;4.55;;;19.50;99.90;;;;;;5095579;28;20040;-70
2022/09/11 12:43:41;;;;;;;6.60;4.20;;;19.50;99.90;;;;;;5089255;28;20043;-69
2022/09/11 12:46:19;;;;;;;8.10;3.97;;;19.60;99.90;;;;;;5094104;28;20043;-69
2022/09/11 12:48:51;;;;;;;5.95;3.90;;;19.80;99.90;;;;;;5095656;28;20051;-70
2022/09/11 12:51:24;;;;;;;7.78;3.28;;;19.90;99.90;;;;;;5095203;28;20372;-70
2022/09/11 12:53:52;;;;;;;;;;;20.00;99.90;;;;;;5078144;28;20054;-72
2022/09/11 12:56:21;;;;;;;4.25;2.95;;;20.00;99.90;;;;;;5095186;28;20252;-70
2022/09/11 12:58:56;;;;;;;4.38;2.80;;;20.00;99.90;;;;;;5093905;28;20353;-71